Time;durP1;ratioP1;P1;durP2;ratioP2;P2;SDS_P1;SDS_P2;PMS_P1;PMS_P2;Temp;Humidity;BMP_temperature;BMP_pressure;BME280_temperature;BME280_humidity;BME280_pressure;Samples;Min_cycle;Max_cycle;Signal;HPM_P1;HPM_P2
2024/02/15 00:00:04;;;;;;;51.95;49.20;;;;;;;;;;5061319;28;20033;-65
2024/02/15 00:02:29;;;;;;;47.22;44.80;;;;;;;;;;5066277;28;20040;-65
2024/02/15 00:04:55;;;;;;;53.00;50.15;;;;;;;;;;5064310;28;20025;-64
2024/02/15 00:07:22;;;;;;;44.85;42.55;;;;;;;;;;5065024;28;20513;-65
2024/02/15 00:09:47;;;;;;;48.80;46.33;;;;;;;;;;5064854;28;20028;-64
2024/02/15 00:12:13;;;;;;;47.85;45.35;;;;;;;;;;5068237;28;20402;-65
2024/02/15 00:14:38;;;;;;;50.00;47.40;;;;;;;;;;5065005;28;20334;-65
2024/02/15 00:17:04;;;;;;;48.65;46.15;;;;;;;;;;5063226;28;20089;-64
2024/02/15 00:19:30;;;;;;;45.38;42.95;;;;;;;;;;5063789;28;20033;-64
2024/02/15 00:21:56;;;;;;;48.65;45.95;;;;;;;;;;5062621;28;20774;-64
2024/02/15 00:24:22;;;;;;;50.85;48.28;;;;;;;;;;5063262;28;20032;-64
2024/02/15 00:26:47;;;;;;;48.63;46.17;;;;;;;;;;5064486;28;20417;-64
2024/02/15 00:29:13;;;;;;;41.95;39.80;;;;;;;;;;5064891;28;20024;-65
2024/02/15 00:31:39;;;;;;;43.67;40.88;;;;;;;;;;5065586;28;20414;-64
2024/02/15 00:34:05;;;;;;;44.03;41.78;;;;;;;;;;5065440;28;20090;-65
2024/02/15 00:36:32;;;;;;;43.20;40.90;;;;;;;;;;5060294;28;20029;-64
2024/02/15 00:38:57;;;;;;;45.50;43.15;;;;;;;;;;5063575;28;20024;-65
2024/02/15 00:41:23;;;;;;;45.50;43.20;;;;;;;;;;5063518;28;20051;-65
2024/02/15 00:43:49;;;;;;;45.88;43.55;;;;;;;;;;5065619;28;20078;-66
2024/02/15 00:46:16;;;;;;;45.90;43.45;;;;;;;;;;5064429;28;20169;-65
2024/02/15 00:48:41;;;;;;;43.33;41.10;;;;;;;;;;5066226;28;20036;-65
2024/02/15 00:51:07;;;;;;;46.03;43.67;;;;;;;;;;5065189;28;20750;-65
2024/02/15 00:53:32;;;;;;;44.55;42.25;;;;;;;;;;5063202;28;20098;-65
2024/02/15 00:55:58;;;;;;;47.25;44.85;;;;;;;;;;5064714;28;20044;-65
2024/02/15 00:58:24;;;;;;;50.78;48.20;;;;;;;;;;5062726;28;20040;-65
2024/02/15 01:00:49;;;;;;;50.13;47.60;;;;;;;;;;5063827;28;20044;-66
2024/02/15 01:03:15;;;;;;;52.60;49.90;;;;;;;;;;5063387;28;20028;-65
2024/02/15 01:05:41;;;;;;;53.42;50.70;;;;;;;;;;5063928;28;20374;-65
2024/02/15 01:08:06;;;;;;;51.45;48.83;;;;;;;;;;5061963;28;20174;-65
2024/02/15 01:10:33;;;;;;;47.60;45.15;;;;;;;;;;5062523;28;20120;-65
2024/02/15 01:12:58;;;;;;;50.90;48.30;;;;;;;;;;5064389;28;20686;-65
2024/02/15 01:15:24;;;;;;;50.92;48.33;;;;;;;;;;5062066;28;20130;-65
2024/02/15 01:17:49;;;;;;;54.30;51.55;;;;;;;;;;5063690;28;20032;-65
2024/02/15 01:20:15;;;;;;;50.42;47.65;;;;;;;;;;5062046;28;20081;-65
2024/02/15 01:22:40;;;;;;;53.05;50.35;;;;;;;;;;5062013;28;20465;-65
2024/02/15 01:25:06;;;;;;;50.80;48.15;;;;;;;;;;5064343;28;20110;-65
2024/02/15 01:27:32;;;;;;;50.47;47.90;;;;;;;;;;5062103;28;20475;-65
2024/02/15 01:29:57;;;;;;;53.40;50.67;;;;;;;;;;5062581;28;20110;-65
2024/02/15 01:32:23;;;;;;;49.97;47.35;;;;;;;;;;5064793;28;20039;-64
2024/02/15 01:34:51;;;;;;;52.05;49.38;;;;;;;;;;5063309;28;20206;-64
2024/02/15 01:37:16;;;;;;;50.75;48.05;;;;;;;;;;5066719;28;20056;-65
2024/02/15 01:39:42;;;;;;;51.83;48.10;;;;;;;;;;5065633;28;20587;-64
2024/02/15 01:42:07;;;;;;;51.00;48.40;;;;;;;;;;5063600;28;20043;-64
2024/02/15 01:44:32;;;;;;;52.33;49.60;;;;;;;;;;5062237;28;20137;-64
2024/02/15 01:47:00;;;;;;;48.22;45.80;;;;;;;;;;5064085;28;20040;-64
2024/02/15 01:49:27;;;;;;;48.97;46.38;;;;;;;;;;5065361;28;20032;-65
2024/02/15 01:51:56;;;;;;;46.47;44.10;;;;;;;;;;5064024;28;20486;-65
2024/02/15 01:54:22;;;;;;;48.55;46.05;;;;;;;;;;5062323;28;20033;-65
2024/02/15 01:56:48;;;;;;;46.58;44.17;;;;;;;;;;5065483;28;20045;-65
2024/02/15 01:59:15;;;;;;;52.28;49.65;;;;;;;;;;5063984;28;20455;-65
2024/02/15 02:01:41;;;;;;;49.45;46.97;;;;;;;;;;5062444;28;20028;-64
2024/02/15 02:04:06;;;;;;;48.47;46.03;;;;;;;;;;5065253;28;20454;-65
2024/02/15 02:06:33;;;;;;;49.03;46.53;;;;;;;;;;5064119;28;20039;-64
2024/02/15 02:08:58;;;;;;;50.10;47.53;;;;;;;;;;5065373;28;20032;-64
2024/02/15 02:11:24;;;;;;;52.58;49.88;;;;;;;;;;5062773;28;20028;-65
2024/02/15 02:13:51;;;;;;;49.15;46.67;;;;;;;;;;5065644;28;20033;-64
2024/02/15 02:16:31;;;;;;;49.88;47.25;;;;;;;;;;5064273;28;20032;-65
2024/02/15 02:18:58;;;;;;;53.60;50.70;;;;;;;;;;5062113;28;20043;-64
2024/02/15 02:21:28;;;;;;;52.08;49.45;;;;;;;;;;5064545;28;20293;-64
2024/02/15 02:23:56;;;;;;;50.83;48.25;;;;;;;;;;5066491;28;20056;-64
2024/02/15 02:26:23;;;;;;;50.75;48.15;;;;;;;;;;5062868;28;20028;-65
2024/02/15 02:28:49;;;;;;;51.85;49.22;;;;;;;;;;5065440;28;20107;-64
2024/02/15 02:31:14;;;;;;;54.20;51.40;;;;;;;;;;5063288;28;20028;-64
2024/02/15 02:33:41;;;;;;;53.17;50.42;;;;;;;;;;5058688;28;20115;-65
2024/02/15 02:36:11;;;;;;;55.55;52.55;;;;;;;;;;5063702;28;20032;-64
2024/02/15 02:38:37;;;;;;;53.17;50.38;;;;;;;;;;5061387;28;20032;-64
2024/02/15 02:41:06;;;;;;;51.70;48.40;;;;;;;;;;5066033;28;20502;-64
2024/02/15 02:43:31;;;;;;;56.47;53.60;;;;;;;;;;5063124;28;20105;-64
2024/02/15 02:45:56;;;;;;;48.13;45.50;;;;;;;;;;5061957;28;20045;-64
2024/02/15 02:48:22;;;;;;;51.25;48.60;;;;;;;;;;5064184;28;20523;-65
2024/02/15 02:50:48;;;;;;;51.30;48.67;;;;;;;;;;5065325;28;20123;-64
2024/02/15 02:53:15;;;;;;;51.42;48.70;;;;;;;;;;5061251;28;20670;-65
2024/02/15 02:55:43;;;;;;;55.15;52.13;;;;;;;;;;5063840;28;20066;-64
2024/02/15 02:58:08;;;;;;;57.05;54.17;;;;;;;;;;5065814;28;20032;-65
2024/02/15 03:00:34;;;;;;;52.25;49.60;;;;;;;;;;5061464;28;20120;-65
2024/02/15 03:02:59;;;;;;;54.95;52.15;;;;;;;;;;5064394;28;20024;-64
2024/02/15 03:05:26;;;;;;;56.80;53.92;;;;;;;;;;5062391;28;20362;-64
2024/02/15 03:07:51;;;;;;;53.88;51.17;;;;;;;;;;5061024;28;20036;-65
2024/02/15 03:10:18;;;;;;;52.30;49.60;;;;;;;;;;5062167;28;20037;-64
2024/02/15 03:12:46;;;;;;;50.75;48.15;;;;;;;;;;5066941;28;20089;-64
2024/02/15 03:15:12;;;;;;;55.67;52.78;;;;;;;;;;5062190;28;20086;-64
2024/02/15 03:17:43;;;;;;;59.47;56.47;;;;;;;;;;5060528;28;20067;-64
2024/02/15 03:20:23;;;;;;;55.08;52.20;;;;;;;;;;5063993;28;20040;-65
2024/02/15 03:22:55;;;;;;;49.63;47.08;;;;;;;;;;5062652;28;20394;-65
2024/02/15 03:25:24;;;;;;;55.15;52.20;;;;;;;;;;5061477;28;20036;-65
2024/02/15 03:27:53;;;;;;;57.55;54.63;;;;;;;;;;5065904;28;20522;-64
2024/02/15 03:30:19;;;;;;;49.78;47.25;;;;;;;;;;5064467;28;20044;-64
2024/02/15 03:32:48;;;;;;;50.05;47.53;;;;;;;;;;5062365;28;20036;-64
2024/02/15 03:35:14;;;;;;;48.50;46.00;;;;;;;;;;5064665;28;20128;-65
2024/02/15 03:37:41;;;;;;;52.83;50.10;;;;;;;;;;5046785;28;20588;-65
2024/02/15 03:40:08;;;;;;;54.78;52.00;;;;;;;;;;5062368;28;20072;-64
2024/02/15 03:42:36;;;;;;;58.65;55.70;;;;;;;;;;5061833;28;20043;-64
2024/02/15 03:45:03;;;;;;;62.38;59.17;;;;;;;;;;5062134;28;20044;-65
2024/02/15 03:47:29;;;;;;;61.92;58.80;;;;;;;;;;5063244;28;20112;-64
2024/02/15 03:49:55;;;;;;;62.42;59.28;;;;;;;;;;5066490;28;20119;-64
2024/02/15 03:52:21;;;;;;;57.95;54.95;;;;;;;;;;5061811;28;20051;-64
2024/02/15 03:54:47;;;;;;;55.80;52.95;;;;;;;;;;5069419;28;20526;-64
2024/02/15 03:57:13;;;;;;;59.55;56.55;;;;;;;;;;5066603;28;20135;-64
2024/02/15 03:59:40;;;;;;;56.45;53.55;;;;;;;;;;5064466;28;20029;-64
2024/02/15 04:02:08;;;;;;;52.95;50.22;;;;;;;;;;5066379;28;20086;-64
2024/02/15 04:04:34;;;;;;;51.35;48.75;;;;;;;;;;5066637;28;20051;-64
2024/02/15 04:06:59;;;;;;;49.45;46.90;;;;;;;;;;5069405;28;20369;-64
2024/02/15 04:09:25;;;;;;;52.30;49.55;;;;;;;;;;5063386;28;20152;-64
2024/02/15 04:11:52;;;;;;;50.90;48.30;;;;;;;;;;5067826;28;20060;-65
2024/02/15 04:14:18;;;;;;;47.63;45.20;;;;;;;;;;5066586;28;20361;-65
2024/02/15 04:16:44;;;;;;;52.25;49.60;;;;;;;;;;5064526;28;20047;-65
2024/02/15 04:19:11;;;;;;;53.13;50.40;;;;;;;;;;5066077;28;20040;-64
2024/02/15 04:21:36;;;;;;;53.75;50.80;;;;;;;;;;5066278;28;20044;-64
2024/02/15 04:24:01;;;;;;;52.50;49.83;;;;;;;;;;5063028;28;20047;-65
2024/02/15 04:26:29;;;;;;;53.15;50.38;;;;;;;;;;5067733;28;20056;-65
2024/02/15 04:28:55;;;;;;;53.97;51.22;;;;;;;;;;5066461;28;20042;-65
2024/02/15 04:31:26;;;;;;;58.05;55.15;;;;;;;;;;5065735;28;20382;-65
2024/02/15 04:33:52;;;;;;;58.95;55.80;;;;;;;;;;5064796;28;20042;-64
2024/02/15 04:36:23;;;;;;;57.85;54.83;;;;;;;;;;5066561;28;20123;-64
2024/02/15 04:38:50;;;;;;;51.97;49.30;;;;;;;;;;5066343;28;20047;-64
2024/02/15 04:41:19;;;;;;;52.95;50.25;;;;;;;;;;5065890;28;20090;-64
2024/02/15 04:43:46;;;;;;;55.95;53.08;;;;;;;;;;5065612;28;20028;-64
2024/02/15 04:46:11;;;;;;;58.42;55.33;;;;;;;;;;5064398;28;20036;-64
2024/02/15 04:48:37;;;;;;;54.03;51.28;;;;;;;;;;5064260;28;20374;-64
2024/02/15 04:51:02;;;;;;;57.80;54.88;;;;;;;;;;5065875;28;20028;-64
2024/02/15 04:53:29;;;;;;;57.22;54.35;;;;;;;;;;5064882;28;20098;-64
2024/02/15 04:55:55;;;;;;;51.60;48.95;;;;;;;;;;5067034;28;20041;-65
2024/02/15 04:58:20;;;;;;;54.72;51.95;;;;;;;;;;5064726;28;20388;-64
2024/02/15 05:00:46;;;;;;;46.70;44.33;;;;;;;;;;5064995;28;20063;-64
2024/02/15 05:03:12;;;;;;;48.47;45.83;;;;;;;;;;5067788;28;20063;-65
2024/02/15 05:05:38;;;;;;;47.28;44.67;;;;;;;;;;5069905;28;20021;-64
2024/02/15 05:08:04;;;;;;;42.70;40.53;;;;;;;;;;5067777;28;20058;-65
2024/02/15 05:10:30;;;;;;;43.85;41.60;;;;;;;;;;5065468;28;20071;-64
2024/02/15 05:12:55;;;;;;;48.53;46.03;;;;;;;;;;5064451;28;20126;-65
2024/02/15 05:15:24;;;;;;;45.67;43.35;;;;;;;;;;5068068;28;20036;-65
2024/02/15 05:17:50;;;;;;;45.50;43.13;;;;;;;;;;5064141;28;20054;-65
2024/02/15 05:20:15;;;;;;;41.05;38.90;;;;;;;;;;5064459;28;20032;-65
2024/02/15 05:22:46;;;;;;;41.70;39.55;;;;;;;;;;5065340;28;20467;-65
2024/02/15 05:25:12;;;;;;;44.63;42.30;;;;;;;;;;5065934;28;20462;-65
2024/02/15 05:27:38;;;;;;;47.03;44.60;;;;;;;;;;5061452;28;20042;-65
2024/02/15 05:30:06;;;;;;;51.63;48.92;;;;;;;;;;5061662;28;20654;-64
2024/02/15 05:32:34;;;;;;;48.55;45.90;;;;;;;;;;5062419;28;20364;-64
2024/02/15 05:35:01;;;;;;;50.78;48.15;;;;;;;;;;5062124;28;20413;-64
2024/02/15 05:37:27;;;;;;;48.92;46.33;;;;;;;;;;5067503;28;20042;-65
2024/02/15 05:39:53;;;;;;;51.53;48.90;;;;;;;;;;5052097;28;20020;-65
2024/02/15 05:42:19;;;;;;;52.15;49.28;;;;;;;;;;5067375;28;20025;-65
2024/02/15 05:44:45;;;;;;;50.25;47.67;;;;;;;;;;5062373;28;20091;-64
2024/02/15 05:47:11;;;;;;;52.95;50.22;;;;;;;;;;5063990;28;20040;-63
2024/02/15 05:49:37;;;;;;;49.53;46.95;;;;;;;;;;5062273;28;20507;-64
2024/02/15 05:52:02;;;;;;;50.75;47.17;;;;;;;;;;5065527;28;20024;-64
2024/02/15 05:54:28;;;;;;;49.78;47.28;;;;;;;;;;5061971;28;20079;-64
2024/02/15 05:56:55;;;;;;;52.00;49.35;;;;;;;;;;5064637;28;20090;-63
2024/02/15 05:59:20;;;;;;;48.88;46.35;;;;;;;;;;5065217;28;20028;-62
2024/02/15 06:01:48;;;;;;;50.47;47.80;;;;;;;;;;5062405;28;20111;-62
2024/02/15 06:04:14;;;;;;;45.30;42.95;;;;;;;;;;5064538;28;20141;-63
2024/02/15 06:06:40;;;;;;;51.08;48.42;;;;;;;;;;5066793;28;20039;-64
2024/02/15 06:09:05;;;;;;;48.60;46.15;;;;;;;;;;5067510;28;20036;-64
2024/02/15 06:11:31;;;;;;;47.78;45.33;;;;;;;;;;5063753;28;20109;-64
2024/02/15 06:13:56;;;;;;;47.47;45.05;;;;;;;;;;5065134;28;20032;-64
2024/02/15 06:16:22;;;;;;;49.65;47.10;;;;;;;;;;5062729;28;20093;-64
2024/02/15 06:18:47;;;;;;;47.80;45.38;;;;;;;;;;5061346;28;20033;-64
2024/02/15 06:21:13;;;;;;;51.30;48.55;;;;;;;;;;5061380;28;20488;-64
2024/02/15 06:23:38;;;;;;;44.60;42.03;;;;;;;;;;5064918;28;20520;-64
2024/02/15 06:26:04;;;;;;;47.28;44.88;;;;;;;;;;5062307;28;20112;-64
2024/02/15 06:39:38;;;;;;;42.45;40.30;;;;;;;;;;5062312;28;20111;-64
2024/02/15 06:42:04;;;;;;;42.15;39.92;;;;;;;;;;5064790;28;20142;-64
2024/02/15 06:44:29;;;;;;;44.70;42.33;;;;;;;;;;5063930;28;20063;-64
2024/02/15 06:46:56;;;;;;;41.00;38.88;;;;;;;;;;5063676;28;20040;-64
2024/02/15 06:49:21;;;;;;;45.13;42.65;;;;;;;;;;5061289;28;20035;-64
2024/02/15 06:51:50;;;;;;;42.42;40.22;;;;;;;;;;5061821;28;20040;-64
2024/02/15 06:54:18;;;;;;;43.33;41.10;;;;;;;;;;5062397;28;20615;-64
2024/02/15 06:56:45;;;;;;;44.28;42.03;;;;;;;;;;5063557;28;20028;-64
2024/02/15 06:59:14;;;;;;;46.95;44.33;;;;;;;;;;5061118;28;20047;-64
2024/02/15 07:01:42;;;;;;;43.17;40.97;;;;;;;;;;5066868;28;20397;-64
2024/02/15 07:04:10;;;;;;;49.03;46.53;;;;;;;;;;5062521;28;20059;-64
2024/02/15 07:06:37;;;;;;;44.45;41.85;;;;;;;;;;5066479;28;20044;-64
2024/02/15 07:09:03;;;;;;;44.22;41.92;;;;;;;;;;5063586;28;20048;-64
2024/02/15 07:11:30;;;;;;;43.10;40.88;;;;;;;;;;5064985;28;20032;-64
2024/02/15 07:13:55;;;;;;;46.50;44.13;;;;;;;;;;5062059;28;20373;-64
2024/02/15 07:16:21;;;;;;;47.47;44.97;;;;;;;;;;5063591;28;20345;-64
2024/02/15 07:18:46;;;;;;;46.28;43.90;;;;;;;;;;5062568;28;20054;-64
2024/02/15 07:21:13;;;;;;;48.65;46.15;;;;;;;;;;5065227;28;20036;-64
2024/02/15 07:23:41;;;;;;;50.88;48.28;;;;;;;;;;5065090;28;20048;-64
2024/02/15 07:26:07;;;;;;;49.08;46.47;;;;;;;;;;5062617;28;20041;-64
2024/02/15 07:28:32;;;;;;;53.38;50.45;;;;;;;;;;5065566;28;20028;-64
2024/02/15 07:30:57;;;;;;;48.63;46.13;;;;;;;;;;5066167;28;20036;-64
2024/02/15 07:33:23;;;;;;;57.25;54.38;;;;;;;;;;5070316;28;20040;-64
2024/02/15 07:35:53;;;;;;;54.97;52.17;;;;;;;;;;5065578;28;20113;-64
2024/02/15 07:38:18;;;;;;;58.78;55.80;;;;;;;;;;5065717;28;20486;-64
2024/02/15 07:40:44;;;;;;;54.15;51.35;;;;;;;;;;5065323;28;20040;-64
2024/02/15 07:43:10;;;;;;;56.75;53.83;;;;;;;;;;5068096;28;20032;-64
2024/02/15 07:45:37;;;;;;;55.85;53.05;;;;;;;;;;5066445;28;20053;-64
2024/02/15 07:48:06;;;;;;;58.88;55.88;;;;;;;;;;5066373;28;20042;-64
2024/02/15 07:50:32;;;;;;;65.38;62.08;;;;;;;;;;5068661;28;20450;-64
2024/02/15 07:52:58;;;;;;;63.67;60.47;;;;;;;;;;5063365;28;20082;-64
2024/02/15 07:55:24;;;;;;;63.70;60.50;;;;;;;;;;5071339;28;20039;-64
2024/02/15 07:57:52;;;;;;;68.05;64.65;;;;;;;;;;5069482;28;20044;-64
2024/02/15 08:00:18;;;;;;;70.10;66.57;;;;;;;;;;5068680;28;20036;-64
2024/02/15 08:02:43;;;;;;;75.78;71.97;;;;;;;;;;5068646;28;20067;-64
2024/02/15 08:05:10;;;;;;;73.30;69.57;;;;;;;;;;5067353;28;20500;-62
2024/02/15 08:07:44;;;;;;;71.07;67.47;;;;;;;;;;5068546;28;20028;-62
2024/02/15 08:10:12;;;;;;;71.80;68.20;;;;;;;;;;5067073;28;20197;-62
2024/02/15 08:12:46;;;;;;;69.65;66.13;;;;;;;;;;5067213;28;20086;-62
2024/02/15 08:15:12;;;;;;;71.03;67.47;;;;;;;;;;5066967;28;20032;-65
2024/02/15 08:17:41;;;;;;;74.93;71.13;;;;;;;;;;5066892;28;20029;-65
2024/02/15 08:20:09;;;;;;;61.92;58.78;;;;;;;;;;5063981;28;20043;-63
2024/02/15 08:22:38;;;;;;;66.90;63.53;;;;;;;;;;5061029;28;20037;-63
2024/02/15 08:25:05;;;;;;;74.95;70.72;;;;;;;;;;5068276;28;20420;-63
2024/02/15 08:27:32;;;;;;;68.78;65.28;;;;;;;;;;5065209;28;20047;-63
2024/02/15 08:29:57;;;;;;;59.65;56.65;;;;;;;;;;5064004;28;20641;-63
2024/02/15 08:32:23;;;;;;;61.10;57.80;;;;;;;;;;5065822;28;20036;-63
2024/02/15 08:34:48;;;;;;;62.22;59.08;;;;;;;;;;5066170;28;20041;-63
2024/02/15 08:37:14;;;;;;;63.25;60.05;;;;;;;;;;5065046;28;20134;-63
2024/02/15 08:39:39;;;;;;;57.22;54.33;;;;;;;;;;5065436;28;20032;-65
2024/02/15 08:42:04;;;;;;;61.00;57.92;;;;;;;;;;5070519;28;20296;-63
2024/02/15 08:44:30;;;;;;;43.67;41.38;;;;;;;;;;5063702;28;20325;-63
2024/02/15 08:46:55;;;;;;;52.05;49.15;;;;;;;;;;5065397;28;20040;-63
2024/02/15 08:49:21;;;;;;;47.13;44.58;;;;;;;;;;5065924;28;20042;-63
2024/02/15 08:51:47;;;;;;;44.08;41.83;;;;;;;;;;5066868;28;20028;-63
2024/02/15 08:54:12;;;;;;;46.50;44.00;;;;;;;;;;5063780;28;20033;-63
2024/02/15 08:56:37;;;;;;;36.33;34.35;;;;;;;;;;5063521;28;20058;-63
2024/02/15 08:59:03;;;;;;;36.58;34.67;;;;;;;;;;5063969;28;20043;-63
2024/02/15 09:01:28;;;;;;;38.08;34.85;;;;;;;;;;5064654;28;20035;-63
2024/02/15 09:03:53;;;;;;;33.33;31.52;;;;;;;;;;5067456;28;20038;-63
2024/02/15 09:06:19;;;;;;;27.80;26.27;;;;;;;;;;5066805;28;20055;-63
2024/02/15 09:08:45;;;;;;;30.15;28.52;;;;;;;;;;5066595;28;20040;-63
2024/02/15 09:11:12;;;;;;;31.83;30.13;;;;;;;;;;5065115;28;20024;-64
2024/02/15 09:13:38;;;;;;;30.92;29.15;;;;;;;;;;5065010;28;20052;-63
2024/02/15 09:16:04;;;;;;;25.10;23.70;;;;;;;;;;5064666;28;20046;-63
2024/02/15 09:18:29;;;;;;;26.13;24.48;;;;;;;;;;5067973;28;20268;-63
2024/02/15 09:20:55;;;;;;;26.10;24.50;;;;;;;;;;5066309;28;20044;-63
2024/02/15 09:23:23;;;;;;;27.30;25.80;;;;;;;;;;5066095;28;20043;-63
2024/02/15 09:25:51;;;;;;;26.00;24.60;;;;;;;;;;5065399;28;20112;-63
2024/02/15 09:28:21;;;;;;;24.20;22.90;;;;;;;;;;5065004;28;20056;-63
2024/02/15 09:30:48;;;;;;;25.33;23.95;;;;;;;;;;5065007;28;20331;-63
2024/02/15 09:33:13;;;;;;;25.77;24.40;;;;;;;;;;5064808;28;20028;-63
2024/02/15 09:35:38;;;;;;;26.40;25.00;;;;;;;;;;5064649;28;20121;-64
2024/02/15 09:38:06;;;;;;;26.30;24.90;;;;;;;;;;5061342;28;20040;-64
2024/02/15 09:40:31;;;;;;;26.85;25.45;;;;;;;;;;5066074;28;20029;-63
2024/02/15 09:42:57;;;;;;;26.92;25.45;;;;;;;;;;5064607;28;20101;-65
2024/02/15 09:45:24;;;;;;;31.83;30.10;;;;;;;;;;5063422;28;20053;-63
2024/02/15 09:47:52;;;;;;;33.42;31.60;;;;;;;;;;5063463;28;20043;-64
2024/02/15 09:50:18;;;;;;;35.63;33.75;;;;;;;;;;5062512;28;20417;-64
2024/02/15 09:52:51;;;;;;;34.67;32.88;;;;;;;;;;5061638;28;20028;-63
2024/02/15 09:55:17;;;;;;;34.63;32.72;;;;;;;;;;5065274;28;20063;-64
2024/02/15 09:57:44;;;;;;;32.35;30.63;;;;;;;;;;5065503;28;20437;-64
2024/02/15 10:00:13;;;;;;;33.22;30.58;;;;;;;;;;5063287;28;20044;-64
2024/02/15 10:02:44;;;;;;;33.95;32.05;;;;;;;;;;5064812;28;20106;-64
2024/02/15 10:05:13;;;;;;;34.00;32.20;;;;;;;;;;5061994;28;20366;-64
2024/02/15 10:07:45;;;;;;;34.33;32.53;;;;;;;;;;5064704;28;20508;-64
2024/02/15 10:10:21;;;;;;;34.03;32.05;;;;;;;;;;5064694;28;20051;-64
2024/02/15 10:12:51;;;;;;;35.85;33.90;;;;;;;;;;5065978;28;20464;-64
2024/02/15 10:15:34;;;;;;;32.95;31.25;;;;;;;;;;5061163;28;20063;-64
2024/02/15 10:18:11;;;;;;;35.00;33.20;;;;;;;;;;5063764;28;20123;-64
2024/02/15 10:20:44;;;;;;;35.58;33.63;;;;;;;;;;5066433;28;20074;-64
2024/02/15 10:23:17;;;;;;;36.15;34.05;;;;;;;;;;5061736;28;20098;-64
2024/02/15 10:25:43;;;;;;;32.25;30.55;;;;;;;;;;5064546;28;20036;-64
2024/02/15 10:28:10;;;;;;;33.08;31.27;;;;;;;;;;5063714;28;20189;-50
2024/02/15 10:30:36;;;;;;;34.53;32.67;;;;;;;;;;5064561;28;20488;-50
2024/02/15 10:33:02;;;;;;;33.78;32.00;;;;;;;;;;5064167;28;20059;-64
2024/02/15 10:35:28;;;;;;;30.45;28.85;;;;;;;;;;5066308;28;20041;-64
2024/02/15 10:38:09;;;;;;;30.50;28.88;;;;;;;;;;5064778;28;20029;-64
2024/02/15 10:40:34;;;;;;;;;;;;;;;;;;5063641;28;20048;-64
2024/02/15 10:43:02;;;;;;;34.92;33.03;;;;;;;;;;5067679;28;20421;-64
2024/02/15 10:45:30;;;;;;;32.70;30.95;;;;;;;;;;5061629;28;20017;-64
2024/02/15 10:47:57;;;;;;;32.92;31.13;;;;;;;;;;5065074;28;20064;-64
2024/02/15 10:50:22;;;;;;;35.00;32.47;;;;;;;;;;5061447;28;20035;-64
2024/02/15 10:52:55;;;;;;;33.30;31.30;;;;;;;;;;5065449;28;20032;-64
2024/02/15 10:55:43;;;;;;;41.08;38.97;;;;;;;;;;5063770;28;20125;-64
2024/02/15 10:58:13;;;;;;;39.35;37.33;;;;;;;;;;5061486;28;20036;-64
2024/02/15 11:00:39;;;;;;;49.30;46.80;;;;;;;;;;5064118;28;20513;-64
2024/02/15 11:03:08;;;;;;;52.60;49.95;;;;;;;;;;5065315;28;20036;-64
2024/02/15 11:05:37;;;;;;;47.50;44.97;;;;;;;;;;5069174;28;20028;-65
2024/02/15 11:08:06;;;;;;;53.23;50.43;;;;;;;;;;5070127;28;20044;-64
2024/02/15 11:10:32;;;;;;;39.40;37.35;;;;;;;;;;5066428;28;20056;-65
2024/02/15 11:12:59;;;;;;;46.78;43.58;;;;;;;;;;5064562;28;20465;-64
2024/02/15 11:15:53;;;;;;;36.67;34.78;;;;;;;;;;5061994;28;20128;-64
2024/02/15 11:18:51;;;;;;;33.03;31.33;;;;;;;;;;5064805;28;20039;-64
2024/02/15 11:21:18;;;;;;;39.80;37.75;;;;;;;;;;5065222;28;20048;-64
2024/02/15 11:23:44;;;;;;;39.30;37.25;;;;;;;;;;5068954;28;20040;-64
2024/02/15 11:26:46;;;;;;;41.90;39.72;;;;;;;;;;5068235;28;20036;-64
2024/02/15 11:29:54;;;;;;;39.38;37.00;;;;;;;;;;5065246;28;20280;-64
2024/02/15 11:32:36;;;;;;;36.58;34.65;;;;;;;;;;5063502;28;20040;-65
2024/02/15 11:35:10;;;;;;;36.75;34.85;;;;;;;;;;5064480;28;20383;-64
2024/02/15 11:37:48;;;;;;;38.20;36.17;;;;;;;;;;5065059;28;20041;-64
2024/02/15 11:40:17;;;;;;;39.45;37.45;;;;;;;;;;5067214;28;20028;-64
2024/02/15 11:42:44;;;;;;;38.92;36.90;;;;;;;;;;5071159;28;20049;-65
2024/02/15 11:45:09;;;;;;;36.67;34.65;;;;;;;;;;5065724;28;20037;-64
2024/02/15 11:47:43;;;;;;;35.13;33.33;;;;;;;;;;5068918;28;20393;-64
2024/02/15 11:50:14;;;;;;;29.70;28.10;;;;;;;;;;5065682;28;20075;-64
2024/02/15 11:52:49;;;;;;;30.85;29.25;;;;;;;;;;5070358;28;20037;-64
2024/02/15 11:55:20;;;;;;;32.22;30.52;;;;;;;;;;5065260;28;20464;-64
2024/02/15 11:58:02;;;;;;;28.42;26.92;;;;;;;;;;5069750;28;20067;-64
2024/02/15 12:19:55;;;;;;;34.92;32.55;;;;;;;;;;5068362;28;20609;-64
2024/02/15 12:22:40;;;;;;;36.47;34.63;;;;;;;;;;5065813;28;20052;-64
2024/02/15 12:25:11;;;;;;;35.20;33.38;;;;;;;;;;5065946;28;20029;-64
2024/02/15 12:27:44;;;;;;;34.05;32.25;;;;;;;;;;5065816;28;20040;-64
2024/02/15 12:30:26;;;;;;;32.38;30.67;;;;;;;;;;5065454;28;20041;-64
2024/02/15 12:32:51;;;;;;;29.95;28.25;;;;;;;;;;5065157;28;20041;-64
2024/02/15 12:35:19;;;;;;;27.98;26.48;;;;;;;;;;5066823;28;20032;-64
2024/02/15 12:38:05;;;;;;;35.58;33.47;;;;;;;;;;5069655;28;20037;-64
2024/02/15 12:40:35;;;;;;;36.97;34.83;;;;;;;;;;5064232;28;20877;-64
2024/02/15 12:43:03;;;;;;;35.70;33.70;;;;;;;;;;5065550;28;20066;-64
2024/02/15 12:45:29;;;;;;;32.10;30.40;;;;;;;;;;5068928;28;20113;-64
2024/02/15 12:47:56;;;;;;;33.28;31.48;;;;;;;;;;5035112;28;20458;-64
2024/02/15 12:50:23;;;;;;;28.63;27.13;;;;;;;;;;5064415;28;20094;-64
2024/02/15 12:52:50;;;;;;;26.15;24.55;;;;;;;;;;5066585;28;20930;-64
2024/02/15 12:55:25;;;;;;;27.13;25.73;;;;;;;;;;5066404;28;20059;-64
2024/02/15 12:57:52;;;;;;;29.92;27.08;;;;;;;;;;5066007;28;20037;-64
2024/02/15 13:00:27;;;;;;;23.55;22.30;;;;;;;;;;5064367;28;20086;-64
2024/02/15 13:02:53;;;;;;;24.02;22.73;;;;;;;;;;5069570;28;20055;-64
2024/02/15 13:05:19;;;;;;;26.60;25.00;;;;;;;;;;5063604;28;20020;-64
2024/02/15 13:07:48;;;;;;;24.85;23.55;;;;;;;;;;5066525;28;20029;-64
2024/02/15 13:10:17;;;;;;;26.58;25.08;;;;;;;;;;5063150;28;20036;-64
2024/02/15 13:12:44;;;;;;;24.75;23.45;;;;;;;;;;5067749;28;20187;-64
2024/02/15 13:15:14;;;;;;;25.88;24.40;;;;;;;;;;5065280;28;20029;-64
2024/02/15 13:17:44;;;;;;;25.13;23.73;;;;;;;;;;5066126;28;20136;-64
2024/02/15 13:20:14;;;;;;;24.92;23.52;;;;;;;;;;5064150;28;20041;-64
2024/02/15 13:22:40;;;;;;;27.45;25.52;;;;;;;;;;5066886;28;20410;-64
2024/02/15 13:25:10;;;;;;;24.40;23.10;;;;;;;;;;5066372;28;20036;-64
2024/02/15 13:27:38;;;;;;;25.15;23.85;;;;;;;;;;5065669;28;20335;-49
2024/02/15 13:30:08;;;;;;;25.23;23.83;;;;;;;;;;5066652;28;20139;-52
2024/02/15 13:32:37;;;;;;;24.13;22.77;;;;;;;;;;5064616;28;20074;-53
2024/02/15 13:35:12;;;;;;;26.83;25.33;;;;;;;;;;5066070;28;20039;-51
2024/02/15 13:37:43;;;;;;;25.92;24.52;;;;;;;;;;5064950;28;20036;-49
2024/02/15 13:40:19;;;;;;;;;;;;;;;;;;5071236;28;20513;-48
2024/02/15 13:42:49;;;;;;;25.90;24.10;;;;;;;;;;5063952;28;19924;-51
2024/02/15 13:45:18;;;;;;;27.43;25.73;;;;;;;;;;5067315;28;20449;-49
2024/02/15 13:47:47;;;;;;;24.73;23.42;;;;;;;;;;5065077;28;20266;-52
2024/02/15 13:50:16;;;;;;;26.27;24.85;;;;;;;;;;5062286;28;20020;-48
2024/02/15 13:52:43;;;;;;;26.42;24.95;;;;;;;;;;5064505;28;20055;-51
2024/02/15 13:55:12;;;;;;;24.98;23.67;;;;;;;;;;5061351;28;20046;-49
2024/02/15 13:57:43;;;;;;;24.30;22.90;;;;;;;;;;5063742;28;20051;-51
2024/02/15 14:00:14;;;;;;;25.85;24.45;;;;;;;;;;5064060;28;20050;-51
2024/02/15 14:02:43;;;;;;;24.80;23.50;;;;;;;;;;5063797;28;20201;-49
2024/02/15 14:05:11;;;;;;;27.13;25.63;;;;;;;;;;5062223;28;20104;-48
2024/02/15 14:07:39;;;;;;;25.98;24.58;;;;;;;;;;5059815;28;20127;-48
2024/02/15 14:10:06;;;;;;;24.10;22.80;;;;;;;;;;5063657;28;20032;-53
2024/02/15 14:12:32;;;;;;;25.85;24.45;;;;;;;;;;5060561;28;20154;-52
2024/02/15 14:14:57;;;;;;;27.92;26.45;;;;;;;;;;5057298;28;20569;-48
2024/02/15 14:17:23;;;;;;;26.85;25.38;;;;;;;;;;5061950;28;20036;-49
2024/02/15 14:19:49;;;;;;;26.83;25.42;;;;;;;;;;5059518;28;20033;-50
2024/02/15 14:22:16;;;;;;;30.55;28.92;;;;;;;;;;5063714;28;20063;-48
2024/02/15 14:24:44;;;;;;;26.83;25.42;;;;;;;;;;5062578;28;20032;-50
2024/02/15 14:27:11;;;;;;;24.13;22.83;;;;;;;;;;5062482;28;20047;-51
2024/02/15 14:29:44;;;;;;;26.52;25.13;;;;;;;;;;5058408;28;20376;-52
2024/02/15 14:34:56;;;;;;;29.67;28.13;;;;;;;;;;5062619;28;20024;-49
2024/02/15 14:37:22;;;;;;;28.88;27.38;;;;;;;;;;5069398;28;20503;-49
2024/02/15 14:39:47;;;;;;;25.38;24.05;;;;;;;;;;5063525;28;20032;-50
2024/02/15 14:42:12;;;;;;;26.70;25.30;;;;;;;;;;5063206;28;20039;-47
2024/02/15 14:44:38;;;;;;;23.05;21.75;;;;;;;;;;5062617;28;20035;-50
2024/02/15 14:47:04;;;;;;;27.90;26.30;;;;;;;;;;5068066;28;20292;-50
2024/02/15 14:49:29;;;;;;;28.70;27.02;;;;;;;;;;5063272;28;20036;-50
2024/02/15 14:51:54;;;;;;;25.05;23.65;;;;;;;;;;5065848;28;20035;-63
2024/02/15 14:54:20;;;;;;;25.63;24.02;;;;;;;;;;5064762;28;20457;-63